Time;durP1;ratioP1;P1;durP2;ratioP2;P2;SDS_P1;SDS_P2;PMS_P1;PMS_P2;Temp;Humidity;BMP_temperature;BMP_pressure;BME280_temperature;BME280_humidity;BME280_pressure;Samples;Min_cycle;Max_cycle;Signal;HPM_P1;HPM_P2
2022/11/29 00:00:45;;;;;;;15.70;7.15;;;18.50;74.60;;;;;;10479588;28;20151;-33
2022/11/29 00:05:48;;;;;;;14.68;7.05;;;18.50;74.60;;;;;;10503115;28;20071;-30
2022/11/29 00:10:50;;;;;;;12.90;6.82;;;18.50;74.50;;;;;;10486051;28;20118;-34
2022/11/29 00:15:52;;;;;;;16.15;6.88;;;18.50;74.30;;;;;;10492521;28;20060;-31
2022/11/29 00:20:55;;;;;;;13.52;6.22;;;18.50;74.30;;;;;;10492770;28;20090;-34
2022/11/29 00:26:03;;;;;;;14.32;6.60;;;18.40;74.50;;;;;;10481104;28;20045;-31
2022/11/29 00:31:14;;;;;;;10.23;5.53;;;18.50;74.10;;;;;;10489245;28;20071;-32
2022/11/29 00:36:17;;;;;;;12.15;6.00;;;18.50;74.10;;;;;;10510018;28;20574;-38
2022/11/29 00:41:19;;;;;;;10.55;5.32;;;18.40;74.20;;;;;;10481466;28;20048;-32
2022/11/29 00:46:22;;;;;;;8.65;4.90;;;18.40;74.20;;;;;;10487849;28;20076;-31
2022/11/29 00:51:25;;;;;;;10.50;5.40;;;18.40;74.00;;;;;;10481064;28;20075;-35
2022/11/29 00:56:27;;;;;;;10.25;5.18;;;18.40;73.90;;;;;;10490068;28;20102;-37
2022/11/29 01:01:29;;;;;;;8.02;4.70;;;18.40;73.90;;;;;;10511342;28;20036;-33
2022/11/29 01:06:32;;;;;;;8.27;4.03;;;18.30;73.90;;;;;;10482585;28;20075;-32
2022/11/29 01:11:34;;;;;;;8.63;4.10;;;18.40;73.80;;;;;;10491590;28;20467;-33
2022/11/29 01:16:36;;;;;;;7.88;4.65;;;18.30;74.20;;;;;;10491906;28;20135;-31
2022/11/29 01:21:40;;;;;;;9.77;4.15;;;18.40;73.70;;;;;;10476861;28;20142;-31
2022/11/29 01:26:42;;;;;;;7.75;3.97;;;18.30;73.80;;;;;;10488719;28;20109;-31
2022/11/29 01:31:44;;;;;;;8.25;3.60;;;18.30;73.60;;;;;;10493569;28;20483;-35
2022/11/29 01:36:47;;;;;;;7.05;3.80;;;18.30;73.60;;;;;;10474569;28;20049;-31
2022/11/29 01:41:49;;;;;;;9.95;4.20;;;18.30;73.40;;;;;;10489700;28;20037;-29
2022/11/29 01:46:51;;;;;;;5.35;3.58;;;18.30;73.40;;;;;;10474042;28;20044;-30
2022/11/29 01:51:59;;;;;;;6.43;3.58;;;18.30;73.40;;;;;;10492517;28;20129;-31
2022/11/29 01:57:05;;;;;;;4.88;3.00;;;18.30;73.40;;;;;;10482561;28;20053;-30
2022/11/29 02:02:12;;;;;;;5.32;3.20;;;18.30;73.30;;;;;;10481975;28;20048;-30
2022/11/29 02:07:16;;;;;;;5.97;3.08;;;18.30;73.30;;;;;;10502196;28;20097;-31
2022/11/29 02:12:25;;;;;;;6.85;2.97;;;18.20;73.30;;;;;;10476120;28;20049;-31
2022/11/29 02:17:37;;;;;;;6.55;3.22;;;18.20;73.20;;;;;;10485073;28;20083;-31
2022/11/29 02:22:46;;;;;;;4.60;2.80;;;18.20;73.20;;;;;;10486776;28;20045;-31
2022/11/29 02:28:25;;;;;;;6.60;3.05;;;18.20;73.00;;;;;;10489845;28;20044;-31
2022/11/29 02:34:10;;;;;;;3.40;2.47;;;18.20;73.10;;;;;;10478582;28;20040;-31
2022/11/29 02:39:46;;;;;;;3.72;2.72;;;18.20;73.10;;;;;;10432870;28;20559;-32
2022/11/29 02:45:07;;;;;;;3.95;3.03;;;18.20;73.20;;;;;;10480271;28;20107;-32
2022/11/29 02:50:19;;;;;;;4.10;2.53;;;18.20;73.10;;;;;;10487884;28;20133;-36
2022/11/29 02:55:28;;;;;;;3.08;2.20;;;18.20;73.00;;;;;;10490189;28;20079;-32
2022/11/29 03:00:33;;;;;;;3.50;2.63;;;18.10;73.10;;;;;;10479086;28;20055;-32
2022/11/29 03:05:43;;;;;;;3.13;2.38;;;18.20;72.90;;;;;;10482824;28;20121;-30
2022/11/29 03:10:55;;;;;;;2.90;2.30;;;18.10;73.10;;;;;;10488543;28;20055;-34
2022/11/29 03:16:03;;;;;;;3.17;2.43;;;18.10;72.80;;;;;;10479247;28;20057;-31
2022/11/29 03:21:15;;;;;;;3.08;2.35;;;18.10;72.90;;;;;;10486422;28;20558;-30
2022/11/29 03:26:23;;;;;;;2.83;2.25;;;18.10;72.90;;;;;;10486724;28;20071;-31
2022/11/29 03:31:30;;;;;;;3.13;2.20;;;18.10;72.90;;;;;;10494962;28;20120;-31
2022/11/29 03:36:43;;;;;;;3.65;1.88;;;18.10;72.80;;;;;;10507684;28;20082;-31
2022/11/29 03:41:51;;;;;;;3.17;2.50;;;18.10;73.00;;;;;;10484969;28;20048;-30
2022/11/29 03:46:58;;;;;;;2.40;2.20;;;18.10;72.70;;;;;;10485447;28;20494;-36
2022/11/29 03:52:10;;;;;;;3.85;2.20;;;18.10;72.40;;;;;;10497183;28;20040;-33
2022/11/29 03:57:18;;;;;;;2.50;2.00;;;18.10;72.60;;;;;;10481527;28;20082;-28
2022/11/29 04:02:59;;;;;;;2.80;1.85;;;18.10;72.50;;;;;;10497236;28;20140;-35
2022/11/29 04:08:19;;;;;;;2.53;1.95;;;18.00;72.50;;;;;;10459788;28;20045;-31
2022/11/29 04:13:56;;;;;;;2.50;1.83;;;18.00;72.50;;;;;;10501865;28;20079;-36
2022/11/29 04:19:27;;;;;;;3.00;1.90;;;18.00;72.40;;;;;;10448264;28;20072;-32
2022/11/29 04:24:55;;;;;;;2.53;1.90;;;18.00;72.40;;;;;;10503881;28;20568;-31
2022/11/29 04:30:10;;;;;;;2.15;1.73;;;18.00;72.40;;;;;;10489966;28;20119;-30
2022/11/29 04:35:33;;;;;;;2.47;1.70;;;18.00;72.20;;;;;;10490315;28;20045;-31
2022/11/29 04:40:43;;;;;;;;;;;18.00;72.30;;;;;;10486919;28;20133;-31
2022/11/29 04:46:16;;;;;;;2.05;1.85;;;17.90;72.20;;;;;;10496503;28;19924;-34
2022/11/29 04:51:31;;;;;;;2.78;1.55;;;17.90;72.10;;;;;;10494231;28;20166;-35
2022/11/29 04:56:41;;;;;;;8.10;2.00;;;18.00;72.20;;;;;;10491092;28;20052;-34
2022/11/29 05:01:56;;;;;;;2.45;1.77;;;17.90;72.20;;;;;;10494913;28;20284;-33
2022/11/29 05:07:03;;;;;;;2.00;1.63;;;17.90;72.10;;;;;;10481041;28;20041;-32
2022/11/29 05:12:14;;;;;;;1.83;1.67;;;17.90;72.00;;;;;;10492253;28;20081;-32
2022/11/29 05:17:29;;;;;;;2.22;1.60;;;17.90;71.90;;;;;;10492727;28;20052;-32
2022/11/29 05:22:38;;;;;;;2.22;2.00;;;17.90;71.90;;;;;;10485079;28;20440;-32
2022/11/29 05:27:47;;;;;;;1.45;1.35;;;17.90;71.80;;;;;;10487849;28;20685;-31
2022/11/29 05:32:57;;;;;;;2.35;2.08;;;17.90;71.70;;;;;;10484304;28;20044;-31
2022/11/29 05:38:08;;;;;;;2.00;1.80;;;17.90;71.60;;;;;;10479277;28;20098;-32
2022/11/29 05:43:32;;;;;;;1.70;1.50;;;18.00;71.70;;;;;;10481186;28;20044;-33
2022/11/29 05:48:44;;;;;;;2.53;1.75;;;18.00;71.60;;;;;;10474926;28;20044;-30
2022/11/29 05:53:54;;;;;;;4.00;2.00;;;18.00;71.70;;;;;;10483073;28;20057;-32
2022/11/29 05:59:02;;;;;;;2.97;1.85;;;18.00;71.60;;;;;;10485245;28;20060;-27
2022/11/29 06:04:11;;;;;;;1.90;1.70;;;18.00;71.70;;;;;;10469936;28;20629;-30
2022/11/29 06:09:18;;;;;;;4.22;1.70;;;18.00;71.60;;;;;;10485602;28;20160;-31
2022/11/29 06:14:45;;;;;;;2.08;1.60;;;18.00;71.60;;;;;;10478096;28;20094;-32
2022/11/29 06:20:07;;;;;;;2.65;1.60;;;18.10;71.60;;;;;;10481448;28;20602;-31
2022/11/29 06:25:24;;;;;;;4.68;1.52;;;18.00;71.70;;;;;;10482443;28;20037;-33
2022/11/29 06:30:38;;;;;;;2.42;1.50;;;18.10;71.70;;;;;;10483463;28;20397;-31
2022/11/29 06:35:46;;;;;;;3.72;1.80;;;18.00;71.70;;;;;;10471844;28;20090;-36
2022/11/29 06:40:49;;;;;;;2.22;1.70;;;18.10;71.60;;;;;;10479053;28;20102;-33
2022/11/29 06:45:56;;;;;;;1.80;1.50;;;18.10;71.80;;;;;;10485981;28;20461;-29
2022/11/29 06:51:04;;;;;;;1.88;1.75;;;18.10;71.90;;;;;;10482165;28;20555;-31
2022/11/29 06:56:15;;;;;;;2.60;1.60;;;18.10;72.00;;;;;;10485160;28;20044;-32
2022/11/29 07:01:28;;;;;;;2.65;1.67;;;18.00;72.40;;;;;;10501875;28;20105;-30
2022/11/29 07:15:29;;;;;;;2.22;1.70;;;18.10;71.20;;;;;;10463050;27;1992139;-31
2022/11/29 07:20:39;;;;;;;1.92;1.42;;;18.10;72.00;;;;;;10502604;28;20044;-31
2022/11/29 07:25:51;;;;;;;4.28;1.95;;;18.10;72.20;;;;;;10511798;28;20072;-31
2022/11/29 07:31:05;;;;;;;2.83;1.75;;;18.10;72.20;;;;;;10510060;28;20513;-34
2022/11/29 07:36:14;;;;;;;2.25;1.63;;;18.10;72.10;;;;;;10502995;28;20055;-33
2022/11/29 07:41:24;;;;;;;4.07;1.60;;;18.10;72.40;;;;;;10496571;28;20048;-31
2022/11/29 07:46:27;;;;;;;2.50;1.70;;;18.10;72.30;;;;;;10523769;28;20052;-31
2022/11/29 07:51:30;;;;;;;3.50;2.00;;;18.10;72.50;;;;;;10518950;28;20098;-33
2022/11/29 07:56:32;;;;;;;4.55;1.90;;;18.00;72.90;;;;;;10509120;28;20068;-34
2022/11/29 08:01:35;;;;;;;5.60;2.00;;;18.10;72.80;;;;;;10515323;28;20128;-31
2022/11/29 08:06:38;;;;;;;1.80;1.67;;;18.00;73.00;;;;;;10497984;28;20506;-31
2022/11/29 08:11:40;;;;;;;;;;;18.00;73.00;;;;;;10509692;28;20058;-31
2022/11/29 08:16:43;;;;;;;5.35;2.30;;;18.00;73.00;;;;;;10513679;28;20346;-31
2022/11/29 08:21:45;;;;;;;1.83;1.55;;;18.00;73.10;;;;;;10497059;28;20156;-31
2022/11/29 08:26:47;;;;;;;2.72;2.05;;;18.00;73.40;;;;;;10493009;28;20743;-36
2022/11/29 08:31:52;;;;;;;3.28;1.83;;;18.00;73.30;;;;;;10471263;28;20559;-32
2022/11/29 08:36:55;;;;;;;3.58;2.00;;;18.00;73.20;;;;;;10456590;28;20048;-31
2022/11/29 08:41:57;;;;;;;5.85;2.10;;;17.90;73.20;;;;;;10482575;28;20048;-32
2022/11/29 08:57:40;;;;;;;2.22;1.90;;;18.00;72.90;;;;;;10479889;28;20048;-31
2022/11/29 09:02:43;;;;;;;3.00;1.80;;;18.00;72.80;;;;;;10480672;28;20098;-31
2022/11/29 09:07:45;;;;;;;3.40;2.00;;;17.90;72.60;;;;;;10472892;28;20564;-34
2022/11/29 09:12:49;;;;;;;4.90;2.20;;;18.00;73.20;;;;;;10474949;28;20056;-30
2022/11/29 09:17:52;;;;;;;2.13;1.70;;;18.00;72.40;;;;;;10478942;28;20051;-39
2022/11/29 09:22:55;;;;;;;4.50;2.03;;;18.00;72.50;;;;;;10478615;28;20036;-33
2022/11/29 09:28:00;;;;;;;4.07;2.05;;;18.00;72.10;;;;;;10476989;28;20092;-32
2022/11/29 09:33:03;;;;;;;2.55;2.30;;;18.00;72.30;;;;;;10477664;28;20526;-31
2022/11/29 09:38:05;;;;;;;5.13;2.40;;;17.90;72.20;;;;;;10475292;28;20076;-30
2022/11/29 09:43:17;;;;;;;8.07;2.30;;;18.00;72.10;;;;;;10480132;28;20051;-31
2022/11/29 09:48:52;;;;;;;6.90;2.58;;;18.00;71.80;;;;;;10480973;28;20044;-31
2022/11/29 09:54:11;;;;;;;3.28;2.15;;;18.00;71.80;;;;;;10461429;28;20048;-32
2022/11/29 09:59:18;;;;;;;8.40;2.28;;;17.90;71.70;;;;;;10473082;28;20540;-34
2022/11/29 10:04:25;;;;;;;2.85;2.22;;;18.00;71.50;;;;;;10471488;28;20156;-34
2022/11/29 10:09:33;;;;;;;4.28;2.60;;;18.00;71.50;;;;;;10478156;28;20060;-32
2022/11/29 10:14:43;;;;;;;3.10;2.50;;;18.00;71.20;;;;;;10479910;28;20051;-37
2022/11/29 10:19:50;;;;;;;7.28;2.40;;;18.00;71.10;;;;;;10474147;28;20162;-31
2022/11/29 10:25:01;;;;;;;3.17;2.67;;;18.00;70.90;;;;;;10477773;28;20048;-33
2022/11/29 10:30:05;;;;;;;4.03;2.60;;;18.00;70.90;;;;;;10475309;28;20041;-34
2022/11/29 10:35:13;;;;;;;5.53;2.92;;;18.00;71.00;;;;;;10477056;28;20052;-34
2022/11/29 10:40:19;;;;;;;2.75;2.28;;;18.00;70.90;;;;;;10479575;28;20389;-33
2022/11/29 10:45:26;;;;;;;7.43;2.88;;;18.00;70.80;;;;;;10478337;28;20045;-26
2022/11/29 10:50:33;;;;;;;6.50;3.83;;;18.00;70.80;;;;;;10480263;28;20071;-33
2022/11/29 10:55:40;;;;;;;9.40;3.35;;;18.00;71.00;;;;;;10473985;28;20064;-32
2022/11/29 11:00:53;;;;;;;4.93;3.22;;;18.00;71.00;;;;;;10496228;28;20079;-32
2022/11/29 11:06:06;;;;;;;4.47;2.88;;;18.00;70.90;;;;;;10467376;28;20121;-36
2022/11/29 11:11:08;;;;;;;5.93;2.88;;;18.00;71.20;;;;;;10493092;28;20448;-33
2022/11/29 11:16:15;;;;;;;6.05;3.50;;;18.00;70.60;;;;;;10485131;28;20460;-34
2022/11/29 11:21:23;;;;;;;5.70;3.60;;;18.00;70.60;;;;;;10483663;28;20073;-31
2022/11/29 11:26:26;;;;;;;4.82;3.55;;;18.00;70.60;;;;;;10461828;28;20115;-30
2022/11/29 11:31:32;;;;;;;4.78;3.40;;;18.00;70.40;;;;;;10472870;28;20743;-31
2022/11/29 11:36:36;;;;;;;6.60;3.35;;;18.00;70.30;;;;;;10476398;28;20127;-31
2022/11/29 11:47:01;;;;;;;5.47;4.03;;;18.00;70.20;;;;;;10462743;28;20049;-31
2022/11/29 11:52:06;;;;;;;6.75;3.50;;;18.00;70.20;;;;;;10493723;28;20049;-31
2022/11/29 11:57:16;;;;;;;7.13;3.80;;;18.00;70.20;;;;;;10473658;28;20048;-31
2022/11/29 12:02:28;;;;;;;5.10;3.53;;;18.00;70.10;;;;;;10485984;28;20073;-30
2022/11/29 12:07:37;;;;;;;5.53;3.63;;;18.00;70.10;;;;;;10480823;28;20494;-37
2022/11/29 12:12:41;;;;;;;5.75;4.15;;;18.00;70.10;;;;;;10500981;28;20044;-31
2022/11/29 12:17:49;;;;;;;7.65;4.22;;;18.00;70.10;;;;;;10485651;28;20102;-32
2022/11/29 12:23:03;;;;;;;7.55;4.10;;;18.00;70.00;;;;;;10499084;28;20048;-33
2022/11/29 12:28:10;;;;;;;4.70;3.45;;;18.00;70.20;;;;;;10483483;28;20516;-31
2022/11/29 12:33:26;;;;;;;6.45;3.88;;;18.00;70.20;;;;;;10489013;28;21390;-32
2022/11/29 12:38:52;;;;;;;5.57;3.67;;;18.00;70.60;;;;;;10486056;28;20071;-33
2022/11/29 12:44:03;;;;;;;6.00;4.13;;;18.00;70.00;;;;;;10496853;28;20105;-31
2022/11/29 12:49:13;;;;;;;9.60;4.43;;;18.00;69.90;;;;;;10482607;28;20048;-34
2022/11/29 12:54:43;;;;;;;7.55;4.22;;;18.00;69.90;;;;;;10494183;28;20067;-37
2022/11/29 13:00:00;;;;;;;6.32;4.20;;;18.10;70.20;;;;;;10476660;28;20090;-29
2022/11/29 13:05:15;;;;;;;8.52;4.05;;;18.10;70.30;;;;;;10486994;28;20084;-30
2022/11/29 13:10:35;;;;;;;6.53;4.05;;;18.10;70.40;;;;;;10495687;28;20052;-31
2022/11/29 13:15:43;;;;;;;6.78;4.28;;;18.10;70.50;;;;;;10482826;28;20061;-37
2022/11/29 13:20:50;;;;;;;7.28;4.35;;;18.20;70.40;;;;;;10484648;28;20558;-33
2022/11/29 13:25:57;;;;;;;6.95;3.97;;;18.20;70.50;;;;;;10471503;28;20118;-31
2022/11/29 13:31:02;;;;;;;7.25;4.22;;;18.20;70.60;;;;;;10485512;28;20098;-32
2022/11/29 13:36:11;;;;;;;5.03;3.65;;;18.30;70.30;;;;;;10486448;28;20048;-31
2022/11/29 13:41:30;;;;;;;6.57;3.95;;;18.40;70.00;;;;;;10472942;28;20390;-38
2022/11/29 13:46:42;;;;;;;6.60;4.05;;;18.40;69.90;;;;;;10465683;28;20410;-31
2022/11/29 13:51:44;;;;;;;7.13;4.07;;;18.30;70.00;;;;;;10480870;28;20045;-30
2022/11/29 13:56:47;;;;;;;5.95;4.28;;;18.30;69.90;;;;;;10477355;28;20053;-36
2022/11/29 14:01:52;;;;;;;9.07;3.92;;;18.40;69.80;;;;;;10483971;28;20060;-34
2022/11/29 14:07:06;;;;;;;5.88;4.07;;;18.40;69.90;;;;;;10472743;28;20049;-30
2022/11/29 14:12:27;;;;;;;12.88;3.78;;;18.40;69.80;;;;;;10488579;28;20095;-32
2022/11/29 14:17:43;;;;;;;5.10;3.55;;;18.50;69.80;;;;;;10467537;28;20695;-31
2022/11/29 14:23:17;;;;;;;6.20;3.40;;;18.50;69.90;;;;;;10491887;28;20048;-31
2022/11/29 14:28:32;;;;;;;10.70;4.20;;;18.60;69.90;;;;;;10473565;28;20103;-31
2022/11/29 14:33:57;;;;;;;4.60;3.25;;;18.60;70.00;;;;;;10469692;28;20528;-30
2022/11/29 14:39:13;;;;;;;7.50;3.42;;;18.70;70.20;;;;;;10479257;28;20055;-33
2022/11/29 14:44:22;;;;;;;6.95;3.15;;;18.60;70.90;;;;;;10467572;28;20580;-30
2022/11/29 14:49:27;;;;;;;5.50;3.28;;;18.70;70.40;;;;;;10478386;28;20127;-29
2022/11/29 14:54:29;;;;;;;4.45;2.75;;;18.70;70.40;;;;;;10475404;28;20138;-33
2022/11/29 14:59:51;;;;;;;5.25;2.75;;;18.70;70.40;;;;;;10476047;28;20105;-36
2022/11/29 15:04:55;;;;;;;5.30;2.80;;;18.70;70.70;;;;;;10481671;28;20747;-31
2022/11/29 15:10:01;;;;;;;6.13;2.60;;;18.70;70.50;;;;;;10482752;28;20040;-31
2022/11/29 15:15:15;;;;;;;8.95;3.00;;;18.70;71.00;;;;;;10479946;28;20053;-31
2022/11/29 15:20:33;;;;;;;3.92;2.30;;;18.80;70.80;;;;;;10481080;28;20848;-35
2022/11/29 15:25:35;;;;;;;3.88;2.17;;;18.70;71.10;;;;;;10473889;28;20754;-30
2022/11/29 15:30:40;;;;;;;3.88;2.22;;;18.80;70.90;;;;;;10473852;28;20045;-32
2022/11/29 15:35:48;;;;;;;3.90;1.63;;;18.80;71.10;;;;;;10483169;28;20102;-34
2022/11/29 15:40:52;;;;;;;12.20;2.00;;;18.80;71.10;;;;;;10490332;28;20127;-31
2022/11/29 15:45:56;;;;;;;5.53;1.75;;;18.80;71.10;;;;;;10485527;28;20064;-28
2022/11/29 15:51:18;;;;;;;5.07;2.28;;;18.80;71.30;;;;;;10474667;28;20132;-32
2022/11/29 15:56:26;;;;;;;5.10;2.25;;;18.80;71.40;;;;;;10469264;28;20055;-31
2022/11/29 16:01:30;;;;;;;3.60;1.85;;;18.70;71.60;;;;;;10489373;28;20053;-31
2022/11/29 16:06:39;;;;;;;5.38;2.20;;;18.70;71.70;;;;;;10485834;28;20759;-32
2022/11/29 16:11:41;;;;;;;8.35;1.95;;;18.80;71.70;;;;;;10496678;28;20687;-33
2022/11/29 16:16:47;;;;;;;4.63;1.83;;;18.70;71.80;;;;;;10476381;28;20064;-32
2022/11/29 16:22:00;;;;;;;8.40;1.92;;;18.70;72.10;;;;;;10488513;28;20048;-30
2022/11/29 16:27:03;;;;;;;6.32;1.90;;;18.80;72.30;;;;;;10481145;28;20134;-33
2022/11/29 16:32:28;;;;;;;7.50;2.03;;;18.70;73.00;;;;;;10474265;28;20131;-30
2022/11/29 16:37:37;;;;;;;13.30;2.28;;;18.80;72.50;;;;;;10471659;28;20051;-32
2022/11/29 16:42:38;;;;;;;4.97;1.83;;;18.70;73.10;;;;;;10477195;28;20064;-30
2022/11/29 16:47:56;;;;;;;5.55;1.40;;;18.70;72.60;;;;;;10487834;28;20048;-32
2022/11/29 16:53:33;;;;;;;13.25;2.80;;;18.80;72.80;;;;;;10477769;28;20507;-31
2022/11/29 16:58:34;;;;;;;9.10;2.50;;;18.70;73.00;;;;;;10474414;28;20049;-31
2022/11/29 17:03:38;;;;;;;2.75;1.50;;;18.70;73.00;;;;;;10484146;28;20516;-34
2022/11/29 17:08:39;;;;;;;10.55;1.70;;;18.80;73.20;;;;;;10491994;28;20040;-29
2022/11/29 17:13:41;;;;;;;9.40;1.98;;;18.70;73.30;;;;;;10493580;28;20053;-33
2022/11/29 17:18:45;;;;;;;6.80;1.70;;;18.70;73.60;;;;;;10486540;28;20080;-30
2022/11/29 17:23:47;;;;;;;10.52;1.77;;;18.60;73.60;;;;;;10489572;28;20505;-32
2022/11/29 17:28:51;;;;;;;7.28;1.58;;;18.60;73.60;;;;;;10476889;28;20094;-35
2022/11/29 17:33:54;;;;;;;8.05;1.77;;;18.60;73.70;;;;;;10486260;28;20037;-31
2022/11/29 17:38:58;;;;;;;3.90;1.80;;;18.50;73.70;;;;;;10487175;28;20044;-33
2022/11/29 17:44:00;;;;;;;10.85;2.28;;;18.60;73.50;;;;;;10490042;28;20132;-35
2022/11/29 17:49:05;;;;;;;8.27;2.00;;;18.70;73.40;;;;;;10493509;28;20474;-33
2022/11/29 17:54:08;;;;;;;10.65;3.22;;;18.70;73.40;;;;;;10477815;28;20500;-30
2022/11/29 17:59:10;;;;;;;5.90;2.28;;;18.70;73.60;;;;;;10488091;28;20173;-31
2022/11/29 18:04:13;;;;;;;7.85;2.78;;;18.70;73.70;;;;;;10485250;28;20325;-30
2022/11/29 18:09:16;;;;;;;8.75;2.50;;;18.70;73.80;;;;;;10485284;28;20076;-31
2022/11/29 18:14:19;;;;;;;9.27;3.50;;;18.60;74.00;;;;;;10497418;28;20072;-30
2022/11/29 18:19:24;;;;;;;5.88;2.47;;;18.60;74.10;;;;;;10491573;28;20106;-31
2022/11/29 18:24:26;;;;;;;11.40;3.30;;;18.50;74.10;;;;;;10483606;28;20055;-29
2022/11/29 18:29:27;;;;;;;13.18;4.53;;;18.50;74.30;;;;;;10484519;28;20091;-31
2022/11/29 18:34:30;;;;;;;9.70;3.83;;;18.50;74.40;;;;;;10478186;28;20084;-32
2022/11/29 18:39:32;;;;;;;6.72;3.25;;;18.50;74.60;;;;;;10478133;28;20036;-37
2022/11/29 18:44:34;;;;;;;11.93;4.03;;;18.50;74.70;;;;;;10490660;28;20091;-38
2022/11/29 18:49:38;;;;;;;7.25;3.28;;;18.50;74.70;;;;;;10487374;28;20040;-30
2022/11/29 18:54:39;;;;;;;8.10;3.40;;;18.50;74.70;;;;;;10480605;28;20083;-30
2022/11/29 18:59:41;;;;;;;13.30;3.50;;;18.50;74.80;;;;;;10475327;28;20094;-32
2022/11/29 19:04:44;;;;;;;11.98;3.47;;;18.60;74.60;;;;;;10477918;28;20044;-31
2022/11/29 19:09:46;;;;;;;8.98;3.58;;;18.70;74.30;;;;;;10480357;28;20049;-30
2022/11/29 19:14:48;;;;;;;7.07;3.40;;;18.70;74.50;;;;;;10482285;28;20139;-29
2022/11/29 19:19:51;;;;;;;9.30;3.35;;;19.00;75.50;;;;;;10477507;28;20048;-31
2022/11/29 19:24:54;;;;;;;6.22;3.00;;;19.00;73.80;;;;;;10483082;28;20784;-29
2022/11/29 19:29:56;;;;;;;13.18;3.75;;;18.90;74.00;;;;;;10484786;28;20059;-30
2022/11/29 19:34:59;;;;;;;8.75;3.38;;;18.90;74.90;;;;;;10486230;28;20144;-33
2022/11/29 19:40:02;;;;;;;11.93;4.20;;;18.80;74.50;;;;;;10481469;28;20056;-30
2022/11/29 19:45:04;;;;;;;9.07;3.45;;;18.90;74.50;;;;;;10490584;28;20117;-31
2022/11/29 19:50:08;;;;;;;9.80;3.63;;;18.80;74.50;;;;;;10488108;28;20057;-28
2022/11/29 19:55:10;;;;;;;11.82;3.60;;;18.80;74.60;;;;;;10467509;28;20060;-32
2022/11/29 20:00:13;;;;;;;9.88;3.33;;;18.90;74.70;;;;;;10472832;28;20064;-30
2022/11/29 20:05:17;;;;;;;13.07;3.50;;;18.90;74.80;;;;;;10473799;28;20502;-31
2022/11/29 20:10:19;;;;;;;9.73;3.85;;;18.90;74.90;;;;;;10479939;28;20076;-29
2022/11/29 20:15:21;;;;;;;;;;;18.90;74.70;;;;;;10492296;28;20143;-32
2022/11/29 20:20:24;;;;;;;11.60;3.75;;;18.90;74.80;;;;;;10488965;28;19982;-28
2022/11/29 20:25:26;;;;;;;12.98;3.55;;;18.80;74.80;;;;;;10461958;28;20066;-31
2022/11/29 20:30:28;;;;;;;9.05;3.83;;;18.90;75.00;;;;;;10487509;28;20485;-30
2022/11/29 20:35:32;;;;;;;14.75;3.67;;;18.90;74.70;;;;;;10485728;28;20579;-32
2022/11/29 20:40:43;;;;;;;16.15;5.07;;;18.90;74.70;;;;;;10486373;28;20044;-30
2022/11/29 20:45:45;;;;;;;6.88;3.40;;;18.90;75.00;;;;;;10488738;28;20067;-29
2022/11/29 20:50:53;;;;;;;;;;;18.90;75.10;;;;;;10491513;28;20076;-40
2022/11/29 20:55:55;;;;;;;12.45;4.03;;;18.90;75.30;;;;;;10488772;28;20058;-35
2022/11/29 21:00:57;;;;;;;10.38;3.70;;;18.90;75.20;;;;;;10483397;28;20166;-30
2022/11/29 21:06:04;;;;;;;12.25;4.50;;;18.90;75.10;;;;;;10493290;28;20090;-32
2022/11/29 21:11:09;;;;;;;14.57;3.75;;;18.90;75.20;;;;;;10492424;28;20400;-30
2022/11/29 21:16:11;;;;;;;12.52;4.10;;;18.90;75.00;;;;;;10486298;28;20056;-29
2022/11/29 21:21:22;;;;;;;10.23;4.22;;;18.90;74.90;;;;;;10486909;28;20561;-30
2022/11/29 21:26:29;;;;;;;14.32;4.10;;;18.90;74.90;;;;;;10484891;28;20044;-31
2022/11/29 21:31:32;;;;;;;13.57;3.85;;;18.90;74.90;;;;;;10490899;28;20071;-29
2022/11/29 21:36:35;;;;;;;12.95;4.20;;;18.90;74.70;;;;;;10492583;28;20532;-28
2022/11/29 21:41:38;;;;;;;12.55;4.20;;;18.90;74.60;;;;;;10480887;28;20048;-34
2022/11/29 21:46:39;;;;;;;11.50;4.00;;;18.80;74.60;;;;;;10491370;28;20124;-31
2022/11/29 21:51:43;;;;;;;16.40;4.35;;;18.90;74.60;;;;;;10477726;28;20054;-30
2022/11/29 21:56:44;;;;;;;14.30;3.80;;;18.80;74.70;;;;;;10483914;28;20052;-29
2022/11/29 22:01:46;;;;;;;10.88;3.50;;;18.80;74.50;;;;;;10479517;28;20197;-29
2022/11/29 22:06:50;;;;;;;16.00;4.30;;;18.80;74.60;;;;;;10487392;28;20045;-31
2022/11/29 22:11:52;;;;;;;14.60;3.90;;;18.80;74.60;;;;;;10482443;28;20494;-32
2022/11/29 22:16:56;;;;;;;13.98;4.50;;;18.80;74.50;;;;;;10477409;28;20136;-29
2022/11/29 22:22:00;;;;;;;10.38;4.25;;;18.80;74.50;;;;;;10497443;28;20098;-31
2022/11/29 22:27:02;;;;;;;12.20;4.32;;;18.80;75.00;;;;;;10472244;28;20056;-32
2022/11/29 22:32:05;;;;;;;10.45;4.05;;;18.80;74.40;;;;;;10495027;28;20097;-34
2022/11/29 22:37:08;;;;;;;15.18;4.78;;;18.80;74.30;;;;;;10491922;28;20051;-35
2022/11/29 22:42:10;;;;;;;8.45;4.28;;;18.80;74.40;;;;;;10501476;28;20133;-35
2022/11/29 22:47:12;;;;;;;9.50;3.92;;;18.70;74.30;;;;;;10468412;28;20525;-31
2022/11/29 22:52:15;;;;;;;10.52;4.18;;;18.70;74.90;;;;;;10487666;28;20083;-31
2022/11/29 22:57:17;;;;;;;11.85;3.95;;;18.70;74.20;;;;;;10475945;28;20110;-33
2022/11/29 23:02:19;;;;;;;9.07;4.60;;;18.70;74.80;;;;;;10487341;28;20065;-31
2022/11/29 23:07:22;;;;;;;8.68;3.63;;;18.60;74.10;;;;;;10473860;28;20089;-33
2022/11/29 23:12:24;;;;;;;13.60;3.55;;;18.70;74.10;;;;;;10486631;28;20060;-30
2022/11/29 23:17:26;;;;;;;9.00;4.80;;;18.70;74.10;;;;;;10480522;28;20072;-32
2022/11/29 23:22:30;;;;;;;9.15;3.85;;;18.60;74.10;;;;;;10484112;28;20720;-30
2022/11/29 23:27:32;;;;;;;12.57;4.95;;;18.60;74.10;;;;;;10468792;28;20037;-29
2022/11/29 23:32:34;;;;;;;10.70;3.75;;;18.60;74.00;;;;;;10487988;28;20074;-32
2022/11/29 23:37:37;;;;;;;11.82;3.83;;;18.60;74.00;;;;;;10503469;28;20143;-34
2022/11/29 23:42:39;;;;;;;9.30;3.95;;;18.50;74.10;;;;;;10484921;28;20480;-30
2022/11/29 23:47:41;;;;;;;8.57;3.92;;;18.60;74.00;;;;;;10492828;28;20044;-31
2022/11/29 23:52:44;;;;;;;7.47;3.33;;;18.60;73.90;;;;;;10477428;28;20136;-31
2022/11/29 23:57:46;;;;;;;5.70;3.15;;;18.60;73.80;;;;;;10480335;28;20397;-26
